createdAt,value
2022-09-17T00:00:50.949Z,68.45
2022-09-17T00:03:18.052Z,67.48
2022-09-17T00:05:45.090Z,67.30
2022-09-17T00:08:15.099Z,67.58
2022-09-17T00:10:44.102Z,68.12
2022-09-17T00:13:11.696Z,67.47
2022-09-17T00:15:43.830Z,67.48
2022-09-17T00:18:11.487Z,66.78
2022-09-17T00:20:43.493Z,66.50
2022-09-17T00:23:11.493Z,66.26
2022-09-17T00:25:43.564Z,67.55
2022-09-17T00:28:11.404Z,66.93
2022-09-17T00:30:43.836Z,66.65
2022-09-17T00:33:16.812Z,66.57
2022-09-17T00:35:44.502Z,66.55
2022-09-17T00:38:11.533Z,67.48
2022-09-17T00:40:39.029Z,67.00
2022-09-17T00:43:12.636Z,67.26
2022-09-17T00:45:40.102Z,66.44
2022-09-17T00:48:07.077Z,66.30
2022-09-17T00:50:42.339Z,66.54
2022-09-17T00:53:16.709Z,66.23
2022-09-17T00:56:05.859Z,66.83
2022-09-17T00:58:40.956Z,67.93
2022-09-17T01:01:08.244Z,67.86
2022-09-17T01:03:35.248Z,67.19
2022-09-17T01:06:23.682Z,66.45
2022-09-17T01:09:02.417Z,66.73
2022-09-17T01:11:51.261Z,67.55
2022-09-17T01:14:45.895Z,66.57
2022-09-17T01:17:25.945Z,67.22
2022-09-17T01:20:14.233Z,66.93
2022-09-17T01:23:03.030Z,66.93
2022-09-17T01:25:50.774Z,66.19
2022-09-17T01:28:46.352Z,67.54
2022-09-17T01:31:31.774Z,67.54
2022-09-17T01:34:05.260Z,68.07
2022-09-17T01:37:03.510Z,66.87
2022-09-17T01:39:50.253Z,67.03
2022-09-17T01:42:25.509Z,67.14
2022-09-17T01:44:54.978Z,67.37
2022-09-17T01:47:31.827Z,67.52
2022-09-17T01:50:05.347Z,67.54
2022-09-17T01:52:36.382Z,67.47
2022-09-17T01:55:07.187Z,67.44
2022-09-17T01:57:40.853Z,66.77
2022-09-17T02:00:12.136Z,67.29
2022-09-17T02:02:45.492Z,66.47
2022-09-17T02:05:21.173Z,66.12
2022-09-17T02:07:56.200Z,67.15
2022-09-17T02:10:28.947Z,66.85
2022-09-17T02:13:09.139Z,66.56
2022-09-17T02:15:43.841Z,66.52
2022-09-17T02:18:23.229Z,66.55
2022-09-17T02:20:55.300Z,67.23
2022-09-17T02:23:29.929Z,67.12
2022-09-17T02:26:04.730Z,66.91
2022-09-17T02:29:02.583Z,67.06
2022-09-17T02:31:29.675Z,67.10
2022-09-17T02:34:01.721Z,67.74
2022-09-17T02:36:28.966Z,67.78
2022-09-17T02:39:01.811Z,67.09
2022-09-17T02:41:42.396Z,68.19
2022-09-17T02:44:18.715Z,68.00
2022-09-17T02:46:57.484Z,68.21
2022-09-17T02:49:42.906Z,68.59
2022-09-17T02:52:24.798Z,68.85
2022-09-17T02:55:10.718Z,68.67
2022-09-17T02:57:46.626Z,68.73
2022-09-17T03:00:19.371Z,68.07
2022-09-17T03:02:51.606Z,67.80
2022-09-17T03:05:22.217Z,67.67
2022-09-17T03:07:49.094Z,67.90
2022-09-17T03:10:16.303Z,68.20
2022-09-17T03:12:43.475Z,68.26
2022-09-17T03:15:10.613Z,68.22
2022-09-17T03:17:37.518Z,68.14
2022-09-17T03:20:05.498Z,68.36
2022-09-17T03:22:32.315Z,67.86
2022-09-17T03:24:59.172Z,67.30
2022-09-17T03:27:25.982Z,67.61
2022-09-17T03:29:52.865Z,67.62
2022-09-17T03:32:19.722Z,68.01
2022-09-17T03:34:47.147Z,67.57
2022-09-17T03:37:14.303Z,68.79
2022-09-17T03:39:41.092Z,68.00
2022-09-17T03:42:07.982Z,68.27
2022-09-17T03:44:34.865Z,68.08
2022-09-17T03:47:01.632Z,67.82
2022-09-17T03:49:28.372Z,68.28
2022-09-17T03:51:55.120Z,67.62
2022-09-17T03:54:21.934Z,67.79
2022-09-17T03:56:48.672Z,67.86
2022-09-17T03:59:15.529Z,67.29
2022-09-17T04:01:42.537Z,69.29
2022-09-17T04:04:09.699Z,69.23
2022-09-17T04:06:36.409Z,68.56
2022-09-17T04:09:05.154Z,68.40
2022-09-17T04:11:31.922Z,68.21
2022-09-17T04:13:59.143Z,67.89
2022-09-17T04:16:26.104Z,68.01
2022-09-17T04:18:52.885Z,68.09
2022-09-17T04:21:19.995Z,68.05
2022-09-17T04:23:46.793Z,67.81
2022-09-17T04:26:13.721Z,68.29
2022-09-17T04:28:40.623Z,67.49
2022-09-17T04:31:07.599Z,67.94
2022-09-17T04:33:34.749Z,69.00
2022-09-17T04:36:01.610Z,68.73
2022-09-17T04:38:28.400Z,68.20
2022-09-17T04:40:57.450Z,69.75
2022-09-17T04:43:24.313Z,68.40
2022-09-17T04:45:51.048Z,68.35
2022-09-17T04:48:18.258Z,67.58
2022-09-17T04:50:45.025Z,67.84
2022-09-17T04:53:12.703Z,68.04
2022-09-17T04:55:39.815Z,67.59
2022-09-17T04:58:06.540Z,67.89
2022-09-17T05:00:34.040Z,66.93
2022-09-17T05:03:01.030Z,66.74
2022-09-17T05:05:27.750Z,67.50
2022-09-17T05:07:54.537Z,67.20
2022-09-17T05:10:23.243Z,67.20
2022-09-17T05:12:55.342Z,67.24
2022-09-17T05:15:24.013Z,66.72
2022-09-17T05:17:50.883Z,67.08
2022-09-17T05:20:18.016Z,67.26
2022-09-17T05:22:47.344Z,67.61
2022-09-17T05:25:16.041Z,67.53
2022-09-17T05:27:42.999Z,67.14
2022-09-17T05:30:10.494Z,67.11
2022-09-17T05:32:37.616Z,67.29
2022-09-17T05:35:06.018Z,67.12
2022-09-17T05:37:33.024Z,67.36
2022-09-17T05:39:59.998Z,66.94
2022-09-17T05:42:26.836Z,67.19
2022-09-17T05:44:53.642Z,67.58
2022-09-17T05:47:20.414Z,68.19
2022-09-17T05:49:47.150Z,68.63
2022-09-17T05:52:13.860Z,68.55
2022-09-17T05:54:40.641Z,68.43
2022-09-17T05:57:07.722Z,68.99
2022-09-17T05:59:35.484Z,68.57
2022-09-17T06:02:02.446Z,68.65
2022-09-17T06:04:32.767Z,69.58
2022-09-17T06:07:07.520Z,69.87
2022-09-17T06:09:37.039Z,69.21
2022-09-17T06:12:05.385Z,69.37
2022-09-17T06:14:32.180Z,68.26
2022-09-17T06:16:58.948Z,69.07
2022-09-17T06:19:25.651Z,69.36
2022-09-17T06:21:52.459Z,69.56
2022-09-17T06:24:19.329Z,69.14
2022-09-17T06:26:46.060Z,70.23
2022-09-17T06:29:15.332Z,69.41
2022-09-17T06:31:45.004Z,69.07
2022-09-17T06:34:11.929Z,69.45
2022-09-17T06:36:38.836Z,68.45
2022-09-17T06:39:05.850Z,68.06
2022-09-17T06:41:33.277Z,67.79
2022-09-17T06:44:00.367Z,69.07
2022-09-17T06:46:27.851Z,68.42
2022-09-17T06:48:54.760Z,69.36
2022-09-17T06:51:22.802Z,68.71
2022-09-17T06:53:49.805Z,70.19
2022-09-17T06:56:17.690Z,71.34
2022-09-17T06:58:44.653Z,69.86
2022-09-17T07:01:12.524Z,69.30
2022-09-17T07:03:39.749Z,69.57
2022-09-17T07:06:12.856Z,69.64
2022-09-17T07:08:39.707Z,69.05
2022-09-17T07:11:06.681Z,68.96
2022-09-17T07:13:33.870Z,69.79
2022-09-17T07:16:02.807Z,70.82
2022-09-17T07:18:30.303Z,68.61
2022-09-17T07:20:59.171Z,68.40
2022-09-17T07:23:28.401Z,68.86
2022-09-17T07:25:57.466Z,69.38
2022-09-17T07:28:25.456Z,68.83
2022-09-17T07:30:53.531Z,68.25
2022-09-17T07:33:24.881Z,68.94
2022-09-17T07:36:00.041Z,68.87
2022-09-17T07:38:28.416Z,69.36
2022-09-17T07:41:00.170Z,68.87
2022-09-17T07:43:28.637Z,69.24
2022-09-17T07:45:58.196Z,69.12
2022-09-17T07:48:26.154Z,68.86
2022-09-17T07:50:52.974Z,67.99
2022-09-17T07:53:19.812Z,67.86
2022-09-17T07:55:53.415Z,68.14
2022-09-17T07:58:21.907Z,68.14
2022-09-17T08:00:49.210Z,68.43
2022-09-17T08:03:16.611Z,68.17
2022-09-17T08:05:43.508Z,67.75
2022-09-17T08:08:10.349Z,67.81
2022-09-17T08:10:37.241Z,66.90
2022-09-17T08:13:04.154Z,67.20
2022-09-17T08:15:31.115Z,67.09
2022-09-17T08:17:58.033Z,67.08
2022-09-17T08:20:26.669Z,66.40
2022-09-17T08:23:03.095Z,66.42
2022-09-17T08:25:30.019Z,67.79
2022-09-17T08:27:56.927Z,68.88
2022-09-17T08:30:24.199Z,66.95
2022-09-17T08:32:51.217Z,66.57
2022-09-17T08:35:18.129Z,66.56
2022-09-17T08:37:45.187Z,65.43
2022-09-17T08:40:23.008Z,65.23
2022-09-17T08:43:00.767Z,64.76
2022-09-17T08:45:27.999Z,65.37
2022-09-17T08:48:03.070Z,65.05
2022-09-17T08:50:32.884Z,65.69
2022-09-17T08:52:59.914Z,64.72
2022-09-17T08:55:35.316Z,64.48
2022-09-17T08:58:27.704Z,64.26
2022-09-17T09:01:19.154Z,64.35
2022-09-17T09:04:03.333Z,65.83
2022-09-17T09:06:38.076Z,66.18
2022-09-17T09:09:29.088Z,64.19
2022-09-17T09:12:06.884Z,65.01
2022-09-17T09:14:47.321Z,65.86
2022-09-17T09:17:18.094Z,66.42
2022-09-17T09:19:46.906Z,65.12
2022-09-17T09:22:42.158Z,64.42
2022-09-17T09:25:37.241Z,63.86
2022-09-17T09:28:29.643Z,65.17
2022-09-17T09:31:40.762Z,66.86
2022-09-17T09:34:09.512Z,64.93
2022-09-17T09:36:39.303Z,66.17
2022-09-17T09:39:22.333Z,66.62
2022-09-17T09:41:54.631Z,67.34
2022-09-17T09:44:25.545Z,67.42
2022-09-17T09:47:12.595Z,69.15
2022-09-17T09:50:08.322Z,67.79
2022-09-17T09:52:59.916Z,67.79
2022-09-17T09:55:42.473Z,69.01
2022-09-17T09:58:44.072Z,69.31
2022-09-17T10:01:22.515Z,67.09
2022-09-17T10:03:52.419Z,67.22
2022-09-17T10:06:20.124Z,65.70
2022-09-17T10:08:55.620Z,64.45
2022-09-17T10:11:27.941Z,66.27
2022-09-17T10:14:19.790Z,65.25
2022-09-17T10:16:46.611Z,64.87
2022-09-17T10:19:20.122Z,64.35
2022-09-17T10:21:47.066Z,65.22
2022-09-17T10:24:34.330Z,64.68
2022-09-17T10:27:04.805Z,65.65
2022-09-17T10:29:32.178Z,64.64
2022-09-17T10:31:59.565Z,63.96
2022-09-17T10:34:27.373Z,64.16
2022-09-17T10:36:56.769Z,64.85
2022-09-17T10:39:44.323Z,63.90
2022-09-17T10:42:18.774Z,63.05
2022-09-17T10:44:56.695Z,62.58
2022-09-17T10:47:29.133Z,62.38
2022-09-17T10:50:08.536Z,62.94
2022-09-17T10:52:38.173Z,63.98
2022-09-17T10:55:08.544Z,64.81
2022-09-17T10:58:08.856Z,67.07
2022-09-17T11:00:39.139Z,65.86
2022-09-17T11:03:43.894Z,66.16
2022-09-17T11:06:45.494Z,65.42
2022-09-17T11:09:28.277Z,66.55
2022-09-17T11:12:24.165Z,63.75
2022-09-17T11:14:54.685Z,65.26
2022-09-17T11:17:24.330Z,61.03
2022-09-17T11:19:59.975Z,59.48
2022-09-17T11:22:34.101Z,61.09
2022-09-17T11:25:43.818Z,61.10
2022-09-17T11:28:10.510Z,60.99
2022-09-17T11:31:08.730Z,59.74
2022-09-17T11:33:47.671Z,60.68
2022-09-17T11:36:22.080Z,61.92
2022-09-17T11:38:51.411Z,63.21
2022-09-17T11:41:23.190Z,62.84
2022-09-17T11:44:13.540Z,62.74
2022-09-17T11:46:51.600Z,63.42
2022-09-17T11:49:33.932Z,64.43
2022-09-17T11:52:07.136Z,63.19
2022-09-17T11:54:39.751Z,64.49
2022-09-17T11:57:19.691Z,65.34
2022-09-17T11:59:55.445Z,65.68
2022-09-17T12:02:43.308Z,66.29
2022-09-17T12:05:18.686Z,62.91
2022-09-17T12:08:14.819Z,62.17
2022-09-17T12:11:17.402Z,61.32
2022-09-17T12:13:51.982Z,60.63
2022-09-17T12:16:34.203Z,60.71
2022-09-17T12:19:04.653Z,60.78
2022-09-17T12:21:39.552Z,62.91
2022-09-17T12:24:26.111Z,66.42
2022-09-17T12:27:18.415Z,66.39
2022-09-17T12:30:00.440Z,68.67
2022-09-17T12:32:53.368Z,68.88
2022-09-17T12:35:22.923Z,68.78
2022-09-17T12:38:17.874Z,68.36
2022-09-17T12:41:21.854Z,69.01
2022-09-17T12:44:07.932Z,68.68
2022-09-17T12:47:00.251Z,69.12
2022-09-17T12:49:38.746Z,68.92
2022-09-17T12:52:10.993Z,67.63
2022-09-17T12:55:05.483Z,68.93
2022-09-17T12:57:49.143Z,68.71
2022-09-17T13:00:17.427Z,71.28
2022-09-17T13:03:02.944Z,69.86
2022-09-17T13:05:47.782Z,67.85
2022-09-17T13:08:23.593Z,67.74
2022-09-17T13:11:08.902Z,66.30
2022-09-17T13:14:05.644Z,67.81
2022-09-17T13:16:43.747Z,67.62
2022-09-17T13:19:40.394Z,66.65
2022-09-17T13:22:13.973Z,66.08
2022-09-17T13:24:44.765Z,64.10
2022-09-17T13:27:23.443Z,64.07
2022-09-17T13:29:56.204Z,64.78
2022-09-17T13:32:35.234Z,63.91
2022-09-17T13:35:14.673Z,62.48
2022-09-17T13:37:49.111Z,62.54
2022-09-17T13:40:26.824Z,63.45
2022-09-17T13:43:02.949Z,62.20
2022-09-17T13:45:30.268Z,62.08
2022-09-17T13:47:59.999Z,62.18
2022-09-17T13:50:26.613Z,62.58
2022-09-17T13:52:56.229Z,62.68
2022-09-17T13:55:32.298Z,63.30
2022-09-17T13:57:59.469Z,62.36
2022-09-17T14:00:48.126Z,62.02
2022-09-17T14:03:48.952Z,60.18
2022-09-17T14:06:15.745Z,60.38
2022-09-17T14:08:45.797Z,59.62
2022-09-17T14:11:27.775Z,57.65
2022-09-17T14:13:55.484Z,57.82
2022-09-17T14:16:37.641Z,57.63
2022-09-17T14:19:17.125Z,56.79
2022-09-17T14:22:16.465Z,57.02
2022-09-17T14:24:44.341Z,56.78
2022-09-17T14:27:16.315Z,56.86
2022-09-17T14:30:01.425Z,56.41
2022-09-17T14:33:07.139Z,56.23
2022-09-17T14:35:51.003Z,56.82
2022-09-17T14:38:37.962Z,56.33
2022-09-17T14:41:22.426Z,55.87
2022-09-17T14:44:02.208Z,56.87
2022-09-17T14:46:36.824Z,55.98
2022-09-17T14:49:37.633Z,56.52
2022-09-17T14:52:38.841Z,56.81
2022-09-17T14:55:26.741Z,56.72
2022-09-17T14:57:57.948Z,57.27
2022-09-17T15:00:28.498Z,57.36
2022-09-17T15:02:59.785Z,58.09
2022-09-17T15:05:33.658Z,58.35
2022-09-17T15:08:10.245Z,58.45
2022-09-17T15:10:59.860Z,58.92
2022-09-17T15:13:35.959Z,58.68
2022-09-17T15:16:05.147Z,58.02
2022-09-17T15:18:40.399Z,59.54
2022-09-17T15:21:41.618Z,59.20
2022-09-17T15:24:20.836Z,58.83
2022-09-17T15:26:52.518Z,59.22
2022-09-17T15:29:27.255Z,59.02
2022-09-17T15:31:54.496Z,58.36
2022-09-17T15:34:22.833Z,60.00
2022-09-17T15:37:19.320Z,58.64
2022-09-17T15:39:55.100Z,59.66
2022-09-17T15:42:40.136Z,60.11
2022-09-17T15:45:19.923Z,59.27
2022-09-17T15:47:51.155Z,60.06
2022-09-17T15:50:40.861Z,59.46
2022-09-17T15:53:10.614Z,58.91
2022-09-17T15:55:43.931Z,58.15
2022-09-17T15:58:25.584Z,60.31
2022-09-17T16:01:12.212Z,57.82
2022-09-17T16:03:39.604Z,58.71
2022-09-17T16:06:18.596Z,57.84
2022-09-17T16:08:47.709Z,58.17
2022-09-17T16:11:15.232Z,57.27
2022-09-17T16:13:42.135Z,58.12
2022-09-17T16:16:15.934Z,57.11
2022-09-17T16:18:42.900Z,57.40
2022-09-17T16:21:20.061Z,57.67
2022-09-17T16:23:46.955Z,57.13
2022-09-17T16:26:28.925Z,56.17
2022-09-17T16:29:07.073Z,56.95
2022-09-17T16:31:34.836Z,57.48
2022-09-17T16:34:01.805Z,57.91
2022-09-17T16:36:31.230Z,56.79
2022-09-17T16:38:59.813Z,56.30
2022-09-17T16:41:26.853Z,57.63
2022-09-17T16:43:54.063Z,56.90
2022-09-17T16:46:21.209Z,56.07
2022-09-17T16:48:51.293Z,57.36
2022-09-17T16:51:18.092Z,56.83
2022-09-17T16:53:44.932Z,56.28
2022-09-17T16:56:14.789Z,56.06
2022-09-17T16:58:41.920Z,55.55
2022-09-17T17:01:09.540Z,55.93
2022-09-17T17:03:36.846Z,57.21
2022-09-17T17:06:03.838Z,58.33
2022-09-17T17:08:34.261Z,57.62
2022-09-17T17:11:02.252Z,58.02
2022-09-17T17:13:29.028Z,56.63
2022-09-17T17:15:56.452Z,56.79
2022-09-17T17:18:24.690Z,56.14
2022-09-17T17:20:51.808Z,56.92
2022-09-17T17:23:19.760Z,56.40
2022-09-17T17:25:47.101Z,57.14
2022-09-17T17:28:15.670Z,57.94
2022-09-17T17:30:46.745Z,56.93
2022-09-17T17:33:13.781Z,58.21
2022-09-17T17:35:40.617Z,58.55
2022-09-17T17:38:07.441Z,57.13
2022-09-17T17:40:34.645Z,57.21
2022-09-17T17:43:01.621Z,56.54
2022-09-17T17:45:28.601Z,57.73
2022-09-17T17:47:55.432Z,57.18
2022-09-17T17:50:22.221Z,57.34
2022-09-17T17:52:49.313Z,57.22
2022-09-17T17:55:16.801Z,56.71
2022-09-17T17:57:43.650Z,56.95
2022-09-17T18:00:12.748Z,56.94
2022-09-17T18:02:41.064Z,57.73
2022-09-17T18:05:08.367Z,57.65
2022-09-17T18:07:35.290Z,57.00
2022-09-17T18:10:02.235Z,58.41
2022-09-17T18:12:29.224Z,60.02
2022-09-17T18:14:56.099Z,59.39
2022-09-17T18:17:23.018Z,58.59
2022-09-17T18:19:51.590Z,59.53
2022-09-17T18:22:18.758Z,59.42
2022-09-17T18:24:46.699Z,59.70
2022-09-17T18:27:13.618Z,58.71
2022-09-17T18:29:41.151Z,59.23
2022-09-17T18:32:07.995Z,60.92
2022-09-17T18:34:39.035Z,59.81
2022-09-17T18:37:05.879Z,60.38
2022-09-17T18:42:23.867Z,60.97
2022-09-17T18:44:50.893Z,61.14
2022-09-17T18:47:17.867Z,62.39
2022-09-17T18:49:44.672Z,62.45
2022-09-17T18:52:11.442Z,62.57
2022-09-17T18:54:38.287Z,63.34
2022-09-17T18:57:05.244Z,62.54
2022-09-17T18:59:32.306Z,64.82
2022-09-17T19:01:59.418Z,63.99
2022-09-17T19:04:27.119Z,66.41
2022-09-17T19:06:53.920Z,66.39
2022-09-17T19:09:20.836Z,65.26
2022-09-17T19:11:47.876Z,65.53
2022-09-17T19:14:14.867Z,66.61
2022-09-17T19:16:41.796Z,66.52
2022-09-17T19:19:08.677Z,67.01
2022-09-17T19:21:35.452Z,65.61
2022-09-17T19:24:03.668Z,65.88
2022-09-17T19:26:30.926Z,67.73
2022-09-17T19:29:00.587Z,66.31
2022-09-17T19:31:28.395Z,66.79
2022-09-17T19:33:56.629Z,66.24
2022-09-17T19:36:23.433Z,66.27
2022-09-17T19:38:50.276Z,65.53
2022-09-17T19:41:23.402Z,66.48
2022-09-17T19:43:54.998Z,65.83
2022-09-17T19:46:24.382Z,66.42
2022-09-17T19:48:53.827Z,66.13
2022-09-17T19:51:22.162Z,65.23
2022-09-17T19:53:49.499Z,64.58
2022-09-17T19:56:19.301Z,65.28
2022-09-17T19:58:46.247Z,65.54
2022-09-17T20:01:13.730Z,64.33
2022-09-17T20:03:42.603Z,65.06
2022-09-17T20:06:12.372Z,64.71
2022-09-17T20:08:47.145Z,65.71
2022-09-17T20:11:15.406Z,64.23
2022-09-17T20:13:42.569Z,64.68
2022-09-17T20:16:15.250Z,65.31
2022-09-17T20:18:43.900Z,65.28
2022-09-17T20:21:20.107Z,63.88
2022-09-17T20:23:47.016Z,63.96
2022-09-17T20:26:14.400Z,64.01
2022-09-17T20:28:41.791Z,64.28
2022-09-17T20:31:17.297Z,63.90
2022-09-17T20:33:45.195Z,64.22
2022-09-17T20:36:14.149Z,63.70
2022-09-17T20:41:28.441Z,63.53
2022-09-17T20:43:55.502Z,63.66
2022-09-17T20:46:28.552Z,63.41
2022-09-17T20:48:57.885Z,63.60
2022-09-17T20:51:27.765Z,62.63
2022-09-17T20:53:55.203Z,63.24
2022-09-17T20:56:24.636Z,62.36
2022-09-17T20:59:13.400Z,61.46
2022-09-17T21:01:44.793Z,61.96
2022-09-17T21:04:15.199Z,62.11
2022-09-17T21:06:43.257Z,63.01
2022-09-17T21:09:12.386Z,62.18
2022-09-17T21:11:39.356Z,62.10
2022-09-17T21:14:06.169Z,62.14
2022-09-17T21:16:33.262Z,62.57
2022-09-17T21:19:03.688Z,62.43
2022-09-17T21:21:30.649Z,61.71
2022-09-17T21:24:05.232Z,62.77
2022-09-17T21:26:33.173Z,61.86
2022-09-17T21:28:59.921Z,61.76
2022-09-17T21:31:32.418Z,61.99
2022-09-17T21:34:02.377Z,61.42
2022-09-17T21:36:32.309Z,61.09
2022-09-17T21:39:01.613Z,61.42
2022-09-17T21:41:29.250Z,61.17
2022-09-17T21:43:56.100Z,61.35
2022-09-17T21:46:24.863Z,61.41
2022-09-17T21:48:54.271Z,61.65
2022-09-17T21:51:23.769Z,61.05
2022-09-17T21:53:52.520Z,60.96
2022-09-17T21:56:20.692Z,61.52
2022-09-17T21:58:52.062Z,63.09
2022-09-17T22:01:22.045Z,61.89
2022-09-17T22:03:49.705Z,61.79
2022-09-17T22:06:25.234Z,62.62
2022-09-17T22:08:52.192Z,62.00
2022-09-17T22:11:25.712Z,62.41
2022-09-17T22:14:05.048Z,62.44
2022-09-17T22:16:33.605Z,62.87
2022-09-17T22:19:00.472Z,62.29
2022-09-17T22:21:28.611Z,61.62
2022-09-17T22:23:57.006Z,61.71
2022-09-17T22:26:25.767Z,62.01
2022-09-17T22:28:53.219Z,61.64
2022-09-17T22:31:20.613Z,62.15
2022-09-17T22:33:48.805Z,61.41
2022-09-17T22:36:20.986Z,61.03
2022-09-17T22:39:06.446Z,60.95
2022-09-17T22:41:36.250Z,61.38
2022-09-17T22:44:04.635Z,62.34
2022-09-17T22:46:34.279Z,62.16
2022-09-17T22:49:01.705Z,62.27
2022-09-17T22:51:30.369Z,61.83
2022-09-17T22:53:58.421Z,61.38
2022-09-17T22:56:27.358Z,62.12
2022-09-17T22:58:55.727Z,61.83
2022-09-17T23:01:25.311Z,61.95
2022-09-17T23:03:52.772Z,61.75
2022-09-17T23:06:22.187Z,61.48
2022-09-17T23:08:48.914Z,60.95
2022-09-17T23:11:22.224Z,60.83
2022-09-17T23:13:50.161Z,60.93
2022-09-17T23:16:17.884Z,60.67
2022-09-17T23:18:44.998Z,61.01
2022-09-17T23:21:14.506Z,60.21
2022-09-17T23:23:42.884Z,61.24
2022-09-17T23:26:12.906Z,61.30
2022-09-17T23:28:39.979Z,62.72
2022-09-17T23:31:15.570Z,60.84
2022-09-17T23:33:43.092Z,60.71
2022-09-17T23:36:15.440Z,60.55
2022-09-17T23:38:43.828Z,60.12
2022-09-17T23:41:17.252Z,59.83
2022-09-17T23:43:47.039Z,60.80
2022-09-17T23:46:14.346Z,60.66
2022-09-17T23:48:41.250Z,60.07
2022-09-17T23:51:08.777Z,60.01
2022-09-17T23:53:36.278Z,60.05
2022-09-17T23:56:05.241Z,61.02
2022-09-17T23:58:32.932Z,60.39
